KEYO2: Keystone Lake

Data processed at Thu Jun 14 2018 23:50


All information presented herein is the property of the government of the United States of America and may be revised or deleted at any time without prior notice.
Dissemination of this information without the expressed written consent of the Public Affairs Office, Tulsa District U.S. Army Corps of Engineers is strictly prohibited.
These data are gathered electronically and, as presented, have not undergone any form of quality control. These data are not guaranteed to be valid or correct.
Go to home page.
Go to station list.

Upstream stations:

Downstream station:
Previous Day
Next Day
Current Day
    
SHEF ID:       KEYO2     Keystone Lake
STATION TYPE:  Reservoir
Normal Pool:  Bottom =   706.00, Top =   723.00

               PRECIP ELEVATION   STORAGE   TW-ELEV    INFLOW   RELEASE  AIR-TEMP  WIND-DIRWIND-SPEED REL-HUMID SOLAR-RAD   VOLTAGE  BAT-LOAD
                   in        ft     ac-ft        ft       cfs       cfs         F       deg       mph         %      W/m2      volt      volt
              Ccp-Rev   Ccp-Rev   Ccp-Rev   Ccp-Rev  Regi-Rev  Regi-Rev   Ccp-Rev   Ccp-Rev   Ccp-Rev   Ccp-Rev   Ccp-Rev   Ccp-Rev   Ccp-Rev
(US/Central)
06/12 00:00      0.00    726.05    491294    638.46      4358        60     83.08    136.60      6.44     68.57      0.00     13.72     13.24
06/12 01:00      0.00    726.08    491980    638.12      4016        60     81.99    108.10      4.72     71.74      0.00     13.71     13.24
06/12 02:00      0.00    726.10    492438    638.01      5597        60     80.37    115.70      5.63     73.83      0.00     13.71     13.30
06/12 03:00      0.00    726.10    492438    637.97      5043        60     80.01    116.20      6.94     72.78      0.00     13.71     13.24
06/12 04:00      0.00    726.13    493124    637.95      5597        60     80.46    121.70      7.33     69.79      0.00     13.71     13.30
06/12 05:00      0.00    726.14    493353    637.95     10580        60     80.24    117.60      4.10     69.91      0.00     13.71     13.30
06/12 06:00      0.00    726.18    494268    637.93     11700        60     77.38     79.50      8.43     66.49      0.00     13.71     13.30
06/12 07:00      0.13    726.29    496785    637.97     10027        60     68.70     46.50     11.30     91.71      0.00     13.71     12.71
06/12 08:00      0.17    726.32    497472    637.95     11768        60     66.61     91.50      8.39    100.32      1.00     13.71     12.01
06/12 09:00      0.12    726.31    497243    637.95     10685        60     67.15     86.40      5.80    100.38      2.00     13.71     12.54
06/12 10:00      0.00    726.35    498158    639.23      5254       460     67.26    107.80      8.97    100.38      5.00     13.71     12.42
06/12 11:00      0.00    726.33    497700    642.32      4753     11260     67.15    129.00      8.24    100.32     15.00     13.71     12.54
06/12 12:00      0.00    726.30    497014    642.49      6491     11660     69.13    171.70      4.35    100.32     34.00     13.71     13.30
06/12 13:00      0.00    726.27    496328    642.54      5369     11460     73.87    169.00      7.20     74.37    106.00     13.71     13.30
06/12 14:00      0.00    726.26    496099    642.59      4876     11460     77.38    182.30      4.47     68.08    291.00     13.71     11.95
06/12 15:00      0.00    726.24    495641    642.60      4282     11460     78.49    266.70      5.50     72.85    542.00     13.71     13.30
06/12 16:00      0.00    726.21    494955    642.65      4282     11560     81.01    288.10      5.45     68.03    682.00     13.71     13.30
06/12 17:00      0.00    726.17    494040    642.64      3748     11460     82.89    305.90      3.57     61.86    390.00     13.72     13.30
06/12 18:00      0.00    726.14    493353    642.66      3798     11460     85.30    302.40      2.83     57.70    405.00     13.71     13.30
06/12 19:00      0.00    726.12    492896    642.66      4382     11560     81.34    117.30      4.35     73.94    203.00     13.71     13.30
06/12 20:00      0.00    726.10    492438    642.69      4976     11760     80.46    120.00      4.10     77.24     78.00     13.71     13.30
06/12 21:00      0.00    726.08    491980    642.59      5569     11660     78.15    104.00      4.34     84.32     10.00     13.71     13.30
06/12 22:00      0.00    726.05    491294    642.65      6103     11660     75.72     94.90      2.54     90.49      0.00     13.71     13.30
06/12 23:00      0.00    726.03    490836    642.67      4880     11660     74.64     95.90      3.28     95.57      0.00     13.71     13.30